Espace membre
Imprimable
Durbuy, 01/07/2018, BEL - Lampiris Ardennes Nature Trail
Liste des rapports > 27.5 km - Classement
Recherche: Page: [1]
105 Entrées
 
Les réclamations ne sont plus acceptées, les résultats sont considérés comme définitifs.
Catégorie
PosNrNomAgeIOCEquipeTempsTkmMoy.RangNomLocalité
1.60FBONO Laurie29FRA2:13:494:58 12.111SEFLIEGE
2.130SCHOUMACKERS Benoît44BEL2:19:505:11 11.591M40HUY
3.123DEWAIDE Antoni45BEL2:31:535:38 10.671M45TINLOT
4.204MYHRE Anthony41NZL2:38:435:53 10.212M40EVERE
5.153BINARD Marc62BEL2:39:315:55 10.161M60ANGLEUR
6.120ADAM Frantz40BELEAW_ING2:40:575:58 10.073M40ETTERBEEK
7.197DE WITTE Frédéric41BEL2:42:306:02 9.974M40SOMBREFFE
8.128DIRICKX Nico34BEL2:43:146:03 9.931SEHSINT-TRUIDEN
9.160THOMIS Olivier36BEL2:45:296:08 9.791M35HEIST OP DEN BERG
10.194BROECKAERT Tom32BELEAW_ING2:45:426:09 9.782SEHDENDERLEEUW
11.101VANUYTRECHT Kim34BEL2:46:566:11 9.713SEHBERTEM
12.127MERCKAERT Patrick52BEL2:47:126:12 9.691M50HERZELE
13.193WOUTERS Stefaan49BEL2:47:136:12 9.692M45BUNSBEEK
14.183DEWEL Koen36BEL2:47:386:13 9.662M35AARSCHOT
15.131MAROT Philippe41BEL2:47:556:14 9.655M40CORTIL-NOIRMONT
16.59BEYERS Nick28BEL2:48:146:14 9.634SEHESSEN
17.175ZIPPER Alexandre28FRA2:48:296:15 9.625SEHIXELLES
18.105LHEUREUX François37BEL2:48:366:15 9.613M35BUVRINNES
19.171BASSELIER Nicolas35BEL2:48:416:15 9.604M35BUVRINNES
20.166SONTAG Thierry41BEL2:49:396:17 9.556M40HEUSY
21.56COLSON Christophe43BEL2:50:216:19 9.517M40DILSEN
22.172VAN BOCKSTAEL Sebastiaan27BEL2:50:406:20 9.496SEHLOCHRISTI
23.192OTTEN Joël36BEL2:50:566:20 9.485M35ESNEUX
24.161DAALMAN Koen37BEL2:51:306:22 9.456M35NIEUWKERKEN-WAAS
25.189ROGIERS Dimitri42BEL2:51:506:22 9.438M40WAASMUNSTER
26.187SOMERS Joris30BEL2:52:196:23 9.407SEHKAPELLEN (ANTW.)
27.180PEETERS Wess31BEL2:52:416:24 9.388SEHMERKSEM
28.124CORNET Fabrice49BEL2:53:566:27 9.313M45SOHEIT-TINLOT
29.165DE RON Gunther49BEL2:54:336:28 9.284M45MEERHOUT
30.173PAESEN Lander26BEL2:54:546:29 9.269SEHHOUTHALEN-HELCHTEREN
31.184MEYNCKENS Peter36BEL2:55:236:30 9.247M35LANGDORP
32.157SMETS Vincent30BEL2:55:246:30 9.2410SEHLUBBEEK
33.126EVRARD Samuel29BEL2:55:326:31 9.2311SEHLUSTIN
34.195DUCARREAU Didier33BEL2:55:336:31 9.2312SEHSEILLES
35.125SCHWAGTEN Siegfried35BELEAW_ING2:56:486:33 9.168M35ANTWERPEN
36.51HAULET Nicolas40BEL2:56:536:34 9.169M40SPRIMONT
37.114BETZEL Peter36DEU2:57:206:35 9.149M35IXELLES
38.191ISLAMGAZIN Ildar32RUS2:57:386:35 9.1213SEHERPENT
39.129GEORGES Pascal47BEL2:57:536:36 9.115M45GRIVEGNÉE
40.168GOESSENS David47BELEAW_DELTALLOYD2:58:466:38 9.066M45ESNEUX
41.55FDECHAMPS Marie21BEL2:59:426:40 9.022SEFBOMAL/OURTHE
42.176VANDORMAEL Karel-Jan32BEL3:01:006:43 8.9514SEHGENK
43.108MOENS Niki39BEL3:01:486:44 8.9110M35AALST
44.61SIMO Batinic43SWE3:03:096:47 8.8510M40WATERLOO
45.110MOREAU Thomas30BEL3:03:416:49 8.8215SEHAUDERGHEM
46.52KOOYMANS Teun36NLD3:05:486:53 8.7211M35ROOSENDAAL
47.121LUYTEN Bjorn34BEL3:07:286:57 8.6416SEHZOUTLEEUW
48.205GUERY Stéphane42FRA3:07:436:58 8.6311M40GENECH
49.199DE CUYPER Thomas40BEL3:08:006:58 8.6212M40STABROEK
50.154FJENNEQUIN Marie37BEL3:08:156:59 8.611F35PONT-À-CELLES
51.155JERONNE Yannick35BEL3:08:176:59 8.6012M35PONT-À-CELLES
52.186CAMERØN Chris43BEL3:09:057:01 8.5713M40WANZE
53.188VAERNEWYCK Thierry38BEL3:09:327:02 8.5513M35BAELEN
54.98RAC Karol25POL3:10:307:04 8.5017SEHSPY
55.200TEEUWS Toon38BEL3:10:307:04 8.5014M35ZWIJNDRECHT
56.54GIELEN Jean-Louis Mario49BEL3:10:427:04 8.507M45ESNEUX
57.132FBRANCH Ann49FIN3:11:067:05 8.481F45BRUXELLES
58.133LOCKETT Anthony51GBR3:11:147:05 8.472M50BRUXELLES
59.106DESART Roel48BEL3:12:467:09 8.408M45MORTSEL
60.57VANAGTMAEL Tom39BEL3:13:027:09 8.3915M35ESSEN
61.162FJANSE Sien34BEL3:13:187:10 8.383SEFRUNKELEN
62.169VERSCHUEREN Jurgen43BEL3:13:597:12 8.3514M40STABROEK
63.179DENDAS Jo41BEL3:16:437:18 8.2415M40KAGGEVINNE
64.156NICK Vranken36BEL3:17:117:19 8.2216M35BEERZEL
65.117COPPENS Kevin32BEL3:19:037:23 8.1418SEHGENTINNES
66.174ALEN Ludo64BEL3:19:127:23 8.132M60OEVEL
67.99NAUWELAERTS Rik31BEL3:20:387:26 8.0719SEHBEERZEL
68.201VAES Bert36BEL3:20:477:27 8.0717M35HASSELT
69.163FCUPPERS Evi39BEL3:22:577:31 7.982F35SCHULEN
70.122KONINGS Gert39BEL3:24:597:36 7.9018M35EKEREN
71.113HENNIQUIAU Jean-Sébastien32BEL3:25:067:36 7.9020SEHLIEGE
72.50DOUNIAUX Pascal José53BEL3:25:527:38 7.873M50NAMUR
73.190SALMON Patrick58FRA3:26:197:39 7.851M55JUPILLE SUR MEUSE
74.58DE RIDDER Tom44BEL3:28:057:43 7.7916M40ESSEN
75.198FLOOR Tanguy40BEL3:30:007:47 7.7117M40CORTIL-NOIRMONT
76.177RUTTEN Benjamin31BELEAW_DELTALLOYD3:31:107:50 7.6721SEHSPALBEEK
77.202BAK Kristof40POL3:31:207:50 7.6718M40AARSCHOT
78.178CUPPENS Bart41BEL3:33:047:54 7.6019M40DIEPENBEEK
79.164VAN NUFFEL Mathias30BEL3:33:177:54 7.6022SEHDENDERMONDE
80.116FSLOS Conny44BEL3:35:588:00 7.501F40MALDEGEM
81.109NAVARRO Nicolas34FRA3:36:548:02 7.4723SEHWOLUWE-SAINT-PIERRE
82.100ROTTIERS Daniel44BEL3:37:078:03 7.4620M40KESSEL-LO
83.159FPIETTE Amandine27BEL3:38:338:06 7.414SEFLIBERCHIES
84.158FPLASMAN Pierrz36BEL3:38:348:06 7.413F35LIBERCHIES
85.181DE MAN Gio36BEL3:42:508:16 7.2719M35AS
86.118RAINBEAUX Valentin28BEL3:44:438:20 7.2124SEHLIMAL
87.119FECHEGUT Nathalie40FRA3:46:498:25 7.142F40LIBRAMONT-CHEVIGNY
88.185COCQUYT Ides39BEL3:50:108:32 7.0420M35DENDERMONDE
89.111BINAME Thomads18BEL3:50:508:33 7.0225SEHPOUSSET
90.115FDE BAERE Charlotte43BEL3:51:418:35 6.993F40MALDEGEM
91.167FWARNIER Caroline45BEL3:52:168:37 6.982F45ESNEUX
92.112DEPIENNE Michael38BEL3:54:118:41 6.9221M35POUSSET
93.170FTELLER Zoé33BELEAW_ING3:57:258:48 6.825SEFBRUXELLES
94.104MEEUS Christophe53BELEAW_ING3:57:288:48 6.824M50OVERIJSE
95.203NOOTS Carl48BEL3:59:118:52 6.779M45HERSELT
96.102GOVAERT Billy38BEL4:04:349:04 6.6222M35WACHTEBEKE
97.103FVAN DELSEN Stephanie38BEL4:04:349:04 6.624F35WACHTEBEKE
98.107FDE SMET Delphine29BEL4:06:139:08 6.586SEFBERCHEM
99.196LEGRAND Christophe41BEL4:14:399:26 6.3621M40NIVELLES
100.1300VERMEIREN Lars39BEL5:13:2711:37 5.1723M35WIJNEGEM
DSQ1254NR 1254 XXX-
DSQ2110NR 2110 XXX-
DSQ62NR 62 XXX-
DSQ182KOUBARI Challid41BEL2:11:49M40KINROOI
DNF97CEUSTERS Eric54BELEAW_AVEVEM50LEUVEN
DNF: abandon; DSQ: disqualifié; Vitesse en km/h
Page: [1]